Terminal Aerodrome Forecast
Issued by NWS Billings, MT

Home | Current Version | Previous Version | Text Only | Print | Product List | Glossary On
Versions: 1 2 3 4 5 6 7 8 9 10 11 12
000
FTUS45 KBYZ 171735
TAFMLS
TAF
KMLS 171735Z 1718/1818 22008KT P6SM SKC WS017/31038KT
     FM180500 24013G25KT P6SM BKN200
     FM180800 22008KT P6SM BKN200 WS011/27037KT=

USA.gov is the U.S. government's official web portal to all federal, state and local government web resources and services.